sensor_id;sensor_type;location;lat;lon;timestamp;pressure;altitude;pressure_sealevel;temperature;humidity
60240;BME280;46102;39.012;-7.064;2023-08-31T00:00:20;98169.34;;;22.51;43.88
60240;BME280;46102;39.012;-7.064;2023-08-31T00:02:20;98169.00;;;22.45;44.04
60240;BME280;46102;39.012;-7.064;2023-08-31T00:04:21;98165.81;;;22.43;44.19
60240;BME280;46102;39.012;-7.064;2023-08-31T00:06:22;98166.25;;;22.38;43.98
60240;BME280;46102;39.012;-7.064;2023-08-31T00:08:23;98163.06;;;22.33;44.13
60240;BME280;46102;39.012;-7.064;2023-08-31T00:10:23;98165.88;;;22.26;44.15
60240;BME280;46102;39.012;-7.064;2023-08-31T00:12:24;98163.09;;;22.26;44.35
60240;BME280;46102;39.012;-7.064;2023-08-31T00:14:26;98167.88;;;22.21;44.51
60240;BME280;46102;39.012;-7.064;2023-08-31T00:16:27;98167.06;;;22.21;44.37
60240;BME280;46102;39.012;-7.064;2023-08-31T00:18:28;98160.69;;;22.13;44.75
60240;BME280;46102;39.012;-7.064;2023-08-31T00:20:31;98164.69;;;22.12;44.43
60240;BME280;46102;39.012;-7.064;2023-08-31T00:22:33;98161.13;;;22.08;44.89
60240;BME280;46102;39.012;-7.064;2023-08-31T00:24:34;98168.69;;;22.04;44.73
60240;BME280;46102;39.012;-7.064;2023-08-31T00:28:42;98158.34;;;21.97;44.92
60240;BME280;46102;39.012;-7.064;2023-08-31T00:30:44;98160.34;;;21.97;45.03
60240;BME280;46102;39.012;-7.064;2023-08-31T00:32:47;98167.53;;;21.91;45.05
60240;BME280;46102;39.012;-7.064;2023-08-31T00:34:55;98167.16;;;21.89;45.12
60240;BME280;46102;39.012;-7.064;2023-08-31T00:36:55;98169.94;;;21.81;45.21
60240;BME280;46102;39.012;-7.064;2023-08-31T00:38:56;98171.16;;;21.80;44.93
60240;BME280;46102;39.012;-7.064;2023-08-31T00:40:57;98168.78;;;21.75;45.21
60240;BME280;46102;39.012;-7.064;2023-08-31T00:42:59;98176.75;;;21.73;45.29
60240;BME280;46102;39.012;-7.064;2023-08-31T00:44:59;98170.38;;;21.69;45.13
60240;BME280;46102;39.012;-7.064;2023-08-31T00:47:01;98164.81;;;21.62;45.37
60240;BME280;46102;39.012;-7.064;2023-08-31T00:49:03;98173.97;;;21.59;45.27
60240;BME280;46102;39.012;-7.064;2023-08-31T00:51:05;98169.97;;;21.56;45.27
60240;BME280;46102;39.012;-7.064;2023-08-31T00:53:07;98166.78;;;21.54;45.39
60240;BME280;46102;39.012;-7.064;2023-08-31T00:55:09;98164.00;;;21.54;45.68
60240;BME280;46102;39.012;-7.064;2023-08-31T00:57:10;98164.03;;;21.51;45.42
60240;BME280;46102;39.012;-7.064;2023-08-31T00:59:10;98152.88;;;21.51;45.62
60240;BME280;46102;39.012;-7.064;2023-08-31T01:01:22;98154.03;;;21.50;45.48
60240;BME280;46102;39.012;-7.064;2023-08-31T01:06:04;98148.47;;;21.42;45.74
60240;BME280;46102;39.012;-7.064;2023-08-31T01:12:47;98140.50;;;21.30;46.00
60240;BME280;46102;39.012;-7.064;2023-08-31T01:16:58;98142.88;;;21.25;46.34
60240;BME280;46102;39.012;-7.064;2023-08-31T01:19:03;98140.88;;;21.21;46.40
60240;BME280;46102;39.012;-7.064;2023-08-31T01:21:22;98142.88;;;21.21;46.16
60240;BME280;46102;39.012;-7.064;2023-08-31T01:25:34;98141.25;;;21.16;46.52
60240;BME280;46102;39.012;-7.064;2023-08-31T01:27:36;98140.47;;;21.16;46.38
60240;BME280;46102;39.012;-7.064;2023-08-31T01:29:38;98138.88;;;21.15;46.07
60240;BME280;46102;39.012;-7.064;2023-08-31T01:31:42;98134.09;;;21.15;46.03
60240;BME280;46102;39.012;-7.064;2023-08-31T01:33:44;98146.84;;;21.16;46.26
60240;BME280;46102;39.012;-7.064;2023-08-31T01:35:49;98136.50;;;21.13;46.36
60240;BME280;46102;39.012;-7.064;2023-08-31T01:38:00;98135.31;;;21.14;46.32
60240;BME280;46102;39.012;-7.064;2023-08-31T01:40:07;98136.50;;;21.13;46.05
60240;BME280;46102;39.012;-7.064;2023-08-31T01:42:15;98132.13;;;21.12;45.80
60240;BME280;46102;39.012;-7.064;2023-08-31T01:44:17;98141.69;;;21.08;46.29
60240;BME280;46102;39.012;-7.064;2023-08-31T01:46:19;98137.66;;;21.05;46.25
60240;BME280;46102;39.012;-7.064;2023-08-31T01:48:20;98130.50;;;21.04;46.02
60240;BME280;46102;39.012;-7.064;2023-08-31T01:50:21;98134.50;;;21.03;46.01
60240;BME280;46102;39.012;-7.064;2023-08-31T01:52:22;98133.28;;;21.00;46.29
60240;BME280;46102;39.012;-7.064;2023-08-31T01:54:23;98134.91;;;21.02;45.96
60240;BME280;46102;39.012;-7.064;2023-08-31T01:56:24;98134.09;;;20.97;46.00
60240;BME280;46102;39.012;-7.064;2023-08-31T01:58:24;98128.13;;;20.92;46.51
60240;BME280;46102;39.012;-7.064;2023-08-31T02:00:26;98144.03;;;20.88;46.23
60240;BME280;46102;39.012;-7.064;2023-08-31T02:02:27;98138.84;;;20.86;46.71
60240;BME280;46102;39.012;-7.064;2023-08-31T02:04:27;98137.28;;;20.85;46.27
60240;BME280;46102;39.012;-7.064;2023-08-31T02:06:31;98123.72;;;20.87;46.65
60240;BME280;46102;39.012;-7.064;2023-08-31T02:08:32;98120.13;;;20.79;46.49
60240;BME280;46102;39.012;-7.064;2023-08-31T02:10:33;98117.34;;;20.79;46.75
60240;BME280;46102;39.012;-7.064;2023-08-31T02:12:33;98120.53;;;20.74;46.78
60240;BME280;46102;39.012;-7.064;2023-08-31T02:14:36;98106.59;;;20.74;46.62
60240;BME280;46102;39.012;-7.064;2023-08-31T02:16:37;98122.13;;;20.72;46.72
60240;BME280;46102;39.012;-7.064;2023-08-31T02:18:38;98110.16;;;20.68;46.70
60240;BME280;46102;39.012;-7.064;2023-08-31T02:20:38;98110.53;;;20.66;46.94
60240;BME280;46102;39.012;-7.064;2023-08-31T02:22:39;98122.06;;;20.65;46.49
60240;BME280;46102;39.012;-7.064;2023-08-31T02:24:40;98116.09;;;20.59;46.91
60240;BME280;46102;39.012;-7.064;2023-08-31T02:26:41;98113.28;;;20.55;46.62
60240;BME280;46102;39.012;-7.064;2023-08-31T02:28:42;98120.09;;;20.58;46.48
60240;BME280;46102;39.012;-7.064;2023-08-31T02:30:44;98115.25;;;20.55;46.54
60240;BME280;46102;39.012;-7.064;2023-08-31T02:32:45;98116.84;;;20.52;46.72
60240;BME280;46102;39.012;-7.064;2023-08-31T02:34:49;98111.25;;;20.49;46.59
60240;BME280;46102;39.012;-7.064;2023-08-31T02:36:49;98113.25;;;20.48;46.42
60240;BME280;46102;39.012;-7.064;2023-08-31T02:38:50;98115.25;;;20.48;46.66
60240;BME280;46102;39.012;-7.064;2023-08-31T02:40:51;98115.22;;;20.44;46.57
60240;BME280;46102;39.012;-7.064;2023-08-31T02:42:52;98121.22;;;20.43;46.51
60240;BME280;46102;39.012;-7.064;2023-08-31T02:44:54;98120.41;;;20.46;46.39
60240;BME280;46102;39.012;-7.064;2023-08-31T02:46:55;98125.59;;;20.47;46.52
60240;BME280;46102;39.012;-7.064;2023-08-31T02:48:56;98121.63;;;20.45;46.55
60240;BME280;46102;39.012;-7.064;2023-08-31T02:50:57;98121.19;;;20.39;46.70
60240;BME280;46102;39.012;-7.064;2023-08-31T02:53:01;98120.38;;;20.31;47.16
60240;BME280;46102;39.012;-7.064;2023-08-31T02:55:02;98115.59;;;20.28;47.01
60240;BME280;46102;39.012;-7.064;2023-08-31T02:57:02;98123.16;;;20.28;47.04
60240;BME280;46102;39.012;-7.064;2023-08-31T02:59:04;98118.78;;;20.27;46.73
60240;BME280;46102;39.012;-7.064;2023-08-31T03:01:09;98122.75;;;20.26;46.75
60240;BME280;46102;39.012;-7.064;2023-08-31T03:03:15;98120.38;;;20.24;46.83
60240;BME280;46102;39.012;-7.064;2023-08-31T03:05:16;98114.38;;;20.22;47.23
60240;BME280;46102;39.012;-7.064;2023-08-31T03:07:17;98118.72;;;20.20;47.33
60240;BME280;46102;39.012;-7.064;2023-08-31T03:09:18;98116.75;;;20.16;47.34
60240;BME280;46102;39.012;-7.064;2023-08-31T03:11:20;98122.69;;;20.11;47.56
60240;BME280;46102;39.012;-7.064;2023-08-31T03:13:21;98128.59;;;20.03;47.64
60240;BME280;46102;39.012;-7.064;2023-08-31T03:15:22;98126.59;;;19.96;47.81
60240;BME280;46102;39.012;-7.064;2023-08-31T03:17:24;98138.47;;;19.89;47.95
60240;BME280;46102;39.012;-7.064;2023-08-31T03:19:26;98135.66;;;19.86;48.17
60240;BME280;46102;39.012;-7.064;2023-08-31T03:21:27;98126.13;;;19.80;48.42
60240;BME280;46102;39.012;-7.064;2023-08-31T03:23:29;98131.22;;;19.74;48.57
60240;BME280;46102;39.012;-7.064;2023-08-31T03:25:31;98129.25;;;19.71;48.67
60240;BME280;46102;39.012;-7.064;2023-08-31T03:27:32;98130.78;;;19.68;48.69
60240;BME280;46102;39.012;-7.064;2023-08-31T03:29:33;98124.41;;;19.68;48.75
60240;BME280;46102;39.012;-7.064;2023-08-31T03:31:35;98129.97;;;19.68;48.71
60240;BME280;46102;39.012;-7.064;2023-08-31T03:33:36;98130.78;;;19.68;48.85
60240;BME280;46102;39.012;-7.064;2023-08-31T03:35:36;98131.66;;;19.72;48.74
60240;BME280;46102;39.012;-7.064;2023-08-31T03:37:37;98128.44;;;19.70;48.73
60240;BME280;46102;39.012;-7.064;2023-08-31T03:39:38;98136.72;;;19.67;48.76
60240;BME280;46102;39.012;-7.064;2023-08-31T03:41:42;98130.75;;;19.65;48.77
60240;BME280;46102;39.012;-7.064;2023-08-31T03:43:43;98131.97;;;19.67;48.78
60240;BME280;46102;39.012;-7.064;2023-08-31T03:45:45;98132.75;;;19.64;48.88
60240;BME280;46102;39.012;-7.064;2023-08-31T03:47:46;98128.34;;;19.63;48.84
60240;BME280;46102;39.012;-7.064;2023-08-31T03:49:47;98131.94;;;19.64;48.91
60240;BME280;46102;39.012;-7.064;2023-08-31T03:51:49;98132.75;;;19.64;49.06
60240;BME280;46102;39.012;-7.064;2023-08-31T03:53:50;98127.16;;;19.61;49.15
60240;BME280;46102;39.012;-7.064;2023-08-31T03:55:52;98137.47;;;19.60;49.08
60240;BME280;46102;39.012;-7.064;2023-08-31T03:57:53;98133.13;;;19.63;49.01
60240;BME280;46102;39.012;-7.064;2023-08-31T03:59:56;98144.66;;;19.65;48.78
60240;BME280;46102;39.012;-7.064;2023-08-31T04:01:57;98140.31;;;19.64;48.77
60240;BME280;46102;39.012;-7.064;2023-08-31T04:04:02;98139.88;;;19.65;48.92
60240;BME280;46102;39.012;-7.064;2023-08-31T04:06:04;98149.44;;;19.64;49.11
60240;BME280;46102;39.012;-7.064;2023-08-31T04:08:05;98147.81;;;19.63;49.07
60240;BME280;46102;39.012;-7.064;2023-08-31T04:10:09;98153.00;;;19.61;49.23
60240;BME280;46102;39.012;-7.064;2023-08-31T04:12:10;98148.22;;;19.62;49.34
60240;BME280;46102;39.012;-7.064;2023-08-31T04:14:10;98157.75;;;19.57;49.54
60240;BME280;46102;39.012;-7.064;2023-08-31T04:16:11;98158.50;;;19.54;49.47
60240;BME280;46102;39.012;-7.064;2023-08-31T04:18:12;98153.34;;;19.52;49.63
60240;BME280;46102;39.012;-7.064;2023-08-31T04:20:13;98154.50;;;19.51;49.69
60240;BME280;46102;39.012;-7.064;2023-08-31T04:22:13;98154.13;;;19.53;49.63
60240;BME280;46102;39.012;-7.064;2023-08-31T04:24:14;98157.69;;;19.50;49.85
60240;BME280;46102;39.012;-7.064;2023-08-31T04:26:15;98158.84;;;19.49;49.77
60240;BME280;46102;39.012;-7.064;2023-08-31T04:28:17;98155.69;;;19.50;49.94
60240;BME280;46102;39.012;-7.064;2023-08-31T04:30:18;98152.06;;;19.43;50.24
60240;BME280;46102;39.012;-7.064;2023-08-31T04:32:19;98152.41;;;19.38;50.34
60240;BME280;46102;39.012;-7.064;2023-08-31T04:34:20;98157.94;;;19.34;50.51
60240;BME280;46102;39.012;-7.064;2023-08-31T04:36:21;98159.94;;;19.33;50.63
60240;BME280;46102;39.012;-7.064;2023-08-31T04:38:22;98159.94;;;19.33;50.57
60240;BME280;46102;39.012;-7.064;2023-08-31T04:40:23;98160.72;;;19.30;50.73
60240;BME280;46102;39.012;-7.064;2023-08-31T04:42:25;98163.06;;;19.28;50.69
60240;BME280;46102;39.012;-7.064;2023-08-31T04:44:25;98157.13;;;19.30;50.78
60240;BME280;46102;39.012;-7.064;2023-08-31T04:46:26;98157.16;;;19.33;50.70
60240;BME280;46102;39.012;-7.064;2023-08-31T04:48:27;98165.13;;;19.35;50.71
60240;BME280;46102;39.012;-7.064;2023-08-31T04:50:28;98168.69;;;19.35;50.80
60240;BME280;46102;39.012;-7.064;2023-08-31T04:52:29;98172.66;;;19.34;50.81
60240;BME280;46102;39.012;-7.064;2023-08-31T04:54:30;98175.41;;;19.31;51.03
60240;BME280;46102;39.012;-7.064;2023-08-31T04:56:32;98178.91;;;19.24;50.94
60240;BME280;46102;39.012;-7.064;2023-08-31T04:58:33;98175.72;;;19.22;51.28
60240;BME280;46102;39.012;-7.064;2023-08-31T05:00:34;98176.16;;;19.24;51.52
60240;BME280;46102;39.012;-7.064;2023-08-31T05:02:35;98174.50;;;19.20;51.84
60240;BME280;46102;39.012;-7.064;2023-08-31T05:04:35;98184.47;;;19.21;51.80
60240;BME280;46102;39.012;-7.064;2023-08-31T05:06:36;98187.63;;;19.19;51.94
60240;BME280;46102;39.012;-7.064;2023-08-31T05:08:37;98194.34;;;19.18;52.11
60240;BME280;46102;39.012;-7.064;2023-08-31T05:10:38;98182.41;;;19.14;52.34
60240;BME280;46102;39.012;-7.064;2023-08-31T05:12:39;98183.16;;;19.07;52.47
60240;BME280;46102;39.012;-7.064;2023-08-31T05:14:40;98186.69;;;19.04;52.70
60240;BME280;46102;39.012;-7.064;2023-08-31T05:16:41;98185.84;;;19.00;52.83
60240;BME280;46102;39.012;-7.064;2023-08-31T05:18:42;98187.38;;;18.94;53.04
60240;BME280;46102;39.012;-7.064;2023-08-31T05:20:46;98200.47;;;18.93;53.27
60240;BME280;46102;39.012;-7.064;2023-08-31T05:22:49;98192.94;;;18.94;53.43
60240;BME280;46102;39.012;-7.064;2023-08-31T05:24:49;98200.44;;;18.90;53.50
60240;BME280;46102;39.012;-7.064;2023-08-31T05:26:50;98211.50;;;18.86;53.67
60240;BME280;46102;39.012;-7.064;2023-08-31T05:28:51;98206.31;;;18.81;54.00
60240;BME280;46102;39.012;-7.064;2023-08-31T05:30:53;98209.44;;;18.80;53.95
60240;BME280;46102;39.012;-7.064;2023-08-31T05:32:54;98209.03;;;18.78;53.97
60240;BME280;46102;39.012;-7.064;2023-08-31T05:34:55;98214.97;;;18.76;53.84
60240;BME280;46102;39.012;-7.064;2023-08-31T05:36:56;98214.97;;;18.76;53.76
60240;BME280;46102;39.012;-7.064;2023-08-31T05:38:57;98215.31;;;18.75;53.93
60240;BME280;46102;39.012;-7.064;2023-08-31T05:41:05;98215.69;;;18.73;54.15
60240;BME280;46102;39.012;-7.064;2023-08-31T05:43:06;98212.91;;;18.73;54.13
60240;BME280;46102;39.012;-7.064;2023-08-31T05:45:07;98218.88;;;18.71;54.17
60240;BME280;46102;39.012;-7.064;2023-08-31T05:47:09;98221.66;;;18.71;54.14
60240;BME280;46102;39.012;-7.064;2023-08-31T05:49:09;98219.66;;;18.72;54.05
60240;BME280;46102;39.012;-7.064;2023-08-31T05:51:10;98215.69;;;18.73;54.12
60240;BME280;46102;39.012;-7.064;2023-08-31T05:53:11;98222.81;;;18.70;54.20
60240;BME280;46102;39.012;-7.064;2023-08-31T05:55:12;98228.44;;;18.74;54.08
60240;BME280;46102;39.012;-7.064;2023-08-31T05:57:12;98232.41;;;18.77;54.13
60240;BME280;46102;39.012;-7.064;2023-08-31T05:59:13;98227.69;;;18.77;53.98
60240;BME280;46102;39.012;-7.064;2023-08-31T06:01:14;98230.09;;;18.79;53.91
60240;BME280;46102;39.012;-7.064;2023-08-31T06:03:15;98229.31;;;18.82;53.81
60240;BME280;46102;39.012;-7.064;2023-08-31T06:05:16;98234.88;;;18.82;54.00
60240;BME280;46102;39.012;-7.064;2023-08-31T06:07:16;98234.50;;;18.83;53.78
60240;BME280;46102;39.012;-7.064;2023-08-31T06:09:17;98237.34;;;18.87;53.95
60240;BME280;46102;39.012;-7.064;2023-08-31T06:11:18;98241.34;;;18.89;53.75
60240;BME280;46102;39.012;-7.064;2023-08-31T06:13:19;98239.78;;;18.92;53.76
60240;BME280;46102;39.012;-7.064;2023-08-31T06:15:19;98246.50;;;18.91;53.94
60240;BME280;46102;39.012;-7.064;2023-08-31T06:17:20;98247.63;;;18.86;53.99
60240;BME280;46102;39.012;-7.064;2023-08-31T06:19:21;98252.03;;;18.87;53.97
60240;BME280;46102;39.012;-7.064;2023-08-31T06:21:22;98259.19;;;18.88;54.01
60240;BME280;46102;39.012;-7.064;2023-08-31T06:23:22;98256.88;;;18.94;53.97
60240;BME280;46102;39.012;-7.064;2023-08-31T06:25:23;98262.44;;;18.94;53.92
60240;BME280;46102;39.012;-7.064;2023-08-31T06:27:24;98257.28;;;18.96;53.74
60240;BME280;46102;39.012;-7.064;2023-08-31T06:29:25;98264.09;;;19.02;53.66
60240;BME280;46102;39.012;-7.064;2023-08-31T06:31:26;98261.34;;;19.06;53.42
60240;BME280;46102;39.012;-7.064;2023-08-31T06:33:27;98263.00;;;19.10;53.38
60240;BME280;46102;39.012;-7.064;2023-08-31T06:35:28;98270.19;;;19.15;53.30
60240;BME280;46102;39.012;-7.064;2023-08-31T06:37:28;98273.44;;;19.21;53.16
60240;BME280;46102;39.012;-7.064;2023-08-31T06:39:29;98268.69;;;19.25;52.97
60240;BME280;46102;39.012;-7.064;2023-08-31T06:41:30;98271.16;;;19.30;52.88
60240;BME280;46102;39.012;-7.064;2023-08-31T06:43:31;98275.56;;;19.34;52.70
60240;BME280;46102;39.012;-7.064;2023-08-31T06:45:32;98275.63;;;19.42;52.43
60240;BME280;46102;39.012;-7.064;2023-08-31T06:47:32;98274.09;;;19.48;52.20
60240;BME280;46102;39.012;-7.064;2023-08-31T06:49:33;98280.16;;;19.57;51.91
60240;BME280;46102;39.012;-7.064;2023-08-31T06:51:35;98277.41;;;19.64;51.69
60240;BME280;46102;39.012;-7.064;2023-08-31T06:53:36;98283.09;;;19.75;51.56
60240;BME280;46102;39.012;-7.064;2023-08-31T06:55:37;98283.97;;;19.83;51.30
60240;BME280;46102;39.012;-7.064;2023-08-31T06:57:38;98281.25;;;19.93;51.08
60240;BME280;46102;39.012;-7.064;2023-08-31T06:59:39;98285.75;;;20.09;50.41
60240;BME280;46102;39.012;-7.064;2023-08-31T07:01:40;98291.03;;;20.25;49.97
60240;BME280;46102;39.012;-7.064;2023-08-31T07:03:41;98284.38;;;20.40;49.53
60240;BME280;46102;39.012;-7.064;2023-08-31T07:05:42;98293.59;;;20.55;49.13
60240;BME280;46102;39.012;-7.064;2023-08-31T07:07:43;98304.84;;;20.73;48.61
60240;BME280;46102;39.012;-7.064;2023-08-31T07:09:46;98301.34;;;20.90;48.13
60240;BME280;46102;39.012;-7.064;2023-08-31T07:11:47;98301.81;;;21.10;47.82
60240;BME280;46102;39.012;-7.064;2023-08-31T07:13:48;98300.69;;;21.33;47.30
60240;BME280;46102;39.012;-7.064;2023-08-31T07:15:49;98308.34;;;21.57;46.55
60240;BME280;46102;39.012;-7.064;2023-08-31T07:17:50;98311.91;;;21.79;45.87
60240;BME280;46102;39.012;-7.064;2023-08-31T07:19:52;98310.75;;;21.98;45.04
60240;BME280;46102;39.012;-7.064;2023-08-31T07:21:53;98311.13;;;22.15;44.77
60240;BME280;46102;39.012;-7.064;2023-08-31T07:23:55;98312.72;;;22.30;44.55
60240;BME280;46102;39.012;-7.064;2023-08-31T07:25:56;98321.91;;;22.45;44.15
60240;BME280;46102;39.012;-7.064;2023-08-31T07:27:58;98322.25;;;22.61;44.07
60240;BME280;46102;39.012;-7.064;2023-08-31T07:29:59;98317.41;;;22.76;43.69
60240;BME280;46102;39.012;-7.064;2023-08-31T07:32:00;98319.78;;;22.89;43.10
60240;BME280;46102;39.012;-7.064;2023-08-31T07:34:01;98319.34;;;23.04;43.04
60240;BME280;46102;39.012;-7.064;2023-08-31T07:36:02;98322.44;;;23.24;42.49
60240;BME280;46102;39.012;-7.064;2023-08-31T07:38:04;98322.69;;;23.48;41.94
60240;BME280;46102;39.012;-7.064;2023-08-31T07:40:05;98310.16;;;23.70;41.24
60240;BME280;46102;39.012;-7.064;2023-08-31T07:42:10;98315.63;;;23.92;40.78
60240;BME280;46102;39.012;-7.064;2023-08-31T07:44:11;98315.06;;;24.12;40.41
60240;BME280;46102;39.012;-7.064;2023-08-31T07:46:11;98314.47;;;24.31;39.97
60240;BME280;46102;39.012;-7.064;2023-08-31T07:48:12;98316.34;;;24.48;39.38
60240;BME280;46102;39.012;-7.064;2023-08-31T07:50:14;98327.75;;;24.68;39.36
60240;BME280;46102;39.012;-7.064;2023-08-31T07:52:15;98319.50;;;24.88;38.68
60240;BME280;46102;39.012;-7.064;2023-08-31T07:54:20;98318.81;;;25.11;38.55
60240;BME280;46102;39.012;-7.064;2023-08-31T07:56:22;98322.16;;;25.33;37.69
60240;BME280;46102;39.012;-7.064;2023-08-31T07:58:24;98321.91;;;25.51;36.65
60240;BME280;46102;39.012;-7.064;2023-08-31T08:00:26;98323.22;;;25.70;34.88
60240;BME280;46102;39.012;-7.064;2023-08-31T08:02:27;98310.56;;;25.86;34.26
60240;BME280;46102;39.012;-7.064;2023-08-31T08:04:28;98316.41;;;25.99;33.84
60240;BME280;46102;39.012;-7.064;2023-08-31T08:06:30;98319.13;;;26.02;33.62
60240;BME280;46102;39.012;-7.064;2023-08-31T08:08:31;98321.44;;;26.07;33.47
60240;BME280;46102;39.012;-7.064;2023-08-31T08:10:31;98321.66;;;26.20;33.38
60240;BME280;46102;39.012;-7.064;2023-08-31T08:12:39;98326.16;;;26.37;33.37
60240;BME280;46102;39.012;-7.064;2023-08-31T08:14:40;98319.38;;;26.58;33.09
60240;BME280;46102;39.012;-7.064;2023-08-31T08:16:42;98321.34;;;26.82;32.56
60240;BME280;46102;39.012;-7.064;2023-08-31T08:18:43;98325.81;;;26.99;31.65
60240;BME280;46102;39.012;-7.064;2023-08-31T08:20:47;98327.47;;;27.16;30.88
60240;BME280;46102;39.012;-7.064;2023-08-31T08:22:48;98328.44;;;27.30;29.45
60240;BME280;46102;39.012;-7.064;2023-08-31T08:24:52;98334.09;;;27.46;29.56
60240;BME280;46102;39.012;-7.064;2023-08-31T08:26:53;98331.31;;;27.62;29.44
60240;BME280;46102;39.012;-7.064;2023-08-31T08:28:54;98332.91;;;27.80;28.98
60240;BME280;46102;39.012;-7.064;2023-08-31T08:30:55;98332.78;;;27.87;28.35
60240;BME280;46102;39.012;-7.064;2023-08-31T08:32:55;98338.34;;;27.91;28.03
60240;BME280;46102;39.012;-7.064;2023-08-31T08:34:57;98343.00;;;27.97;28.11
60240;BME280;46102;39.012;-7.064;2023-08-31T08:36:58;98344.69;;;28.11;28.18
60240;BME280;46102;39.012;-7.064;2023-08-31T08:38:59;98348.53;;;28.34;27.51
60240;BME280;46102;39.012;-7.064;2023-08-31T08:41:04;98343.25;;;28.52;27.38
60240;BME280;46102;39.012;-7.064;2023-08-31T08:43:07;98344.72;;;28.73;27.10
60240;BME280;46102;39.012;-7.064;2023-08-31T08:45:13;98342.84;;;28.83;26.68
60240;BME280;46102;39.012;-7.064;2023-08-31T08:47:17;98350.09;;;28.97;26.73
60240;BME280;46102;39.012;-7.064;2023-08-31T08:49:21;98349.13;;;29.03;26.10
60240;BME280;46102;39.012;-7.064;2023-08-31T08:51:23;98347.63;;;28.99;25.28
60240;BME280;46102;39.012;-7.064;2023-08-31T08:53:24;98339.50;;;29.01;25.61
60240;BME280;46102;39.012;-7.064;2023-08-31T08:55:25;98342.94;;;29.09;25.72
60240;BME280;46102;39.012;-7.064;2023-08-31T08:57:26;98344.31;;;29.17;25.00
60240;BME280;46102;39.012;-7.064;2023-08-31T08:59:27;98348.53;;;29.25;25.43
60240;BME280;46102;39.012;-7.064;2023-08-31T09:01:30;98351.00;;;29.36;24.96
60240;BME280;46102;39.012;-7.064;2023-08-31T09:03:31;98353.78;;;29.52;25.06
60240;BME280;46102;39.012;-7.064;2023-08-31T09:05:32;98356.16;;;29.66;24.99
60240;BME280;46102;39.012;-7.064;2023-08-31T09:07:36;98354.03;;;29.83;24.53
60240;BME280;46102;39.012;-7.064;2023-08-31T09:09:52;98349.88;;;29.88;24.32
60240;BME280;46102;39.012;-7.064;2023-08-31T09:11:53;98354.25;;;29.76;23.81
60240;BME280;46102;39.012;-7.064;2023-08-31T09:13:59;98361.25;;;29.72;24.58
60240;BME280;46102;39.012;-7.064;2023-08-31T09:16:00;98367.94;;;29.78;24.30
60240;BME280;46102;39.012;-7.064;2023-08-31T09:18:00;98362.75;;;29.89;23.91
60240;BME280;46102;39.012;-7.064;2023-08-31T09:20:01;98366.94;;;29.97;24.40
60240;BME280;46102;39.012;-7.064;2023-08-31T09:22:04;98364.31;;;30.16;24.37
60240;BME280;46102;39.012;-7.064;2023-08-31T09:24:05;98364.72;;;30.40;23.93
60240;BME280;46102;39.012;-7.064;2023-08-31T09:26:08;98368.78;;;30.52;23.18
60240;BME280;46102;39.012;-7.064;2023-08-31T09:28:10;98369.47;;;30.56;23.50
60240;BME280;46102;39.012;-7.064;2023-08-31T09:30:11;98362.66;;;30.53;22.73
60240;BME280;46102;39.012;-7.064;2023-08-31T09:32:18;98373.53;;;30.55;22.90
60240;BME280;46102;39.012;-7.064;2023-08-31T09:34:19;98363.00;;;30.55;22.26
60240;BME280;46102;39.012;-7.064;2023-08-31T09:36:22;98373.16;;;30.65;22.23
60240;BME280;46102;39.012;-7.064;2023-08-31T09:38:23;98371.75;;;30.83;22.51
60240;BME280;46102;39.012;-7.064;2023-08-31T09:40:24;98362.31;;;30.99;22.63
60240;BME280;46102;39.012;-7.064;2023-08-31T09:42:36;98357.22;;;31.16;22.21
60240;BME280;46102;39.012;-7.064;2023-08-31T09:44:43;98355.84;;;31.20;22.35
60240;BME280;46102;39.012;-7.064;2023-08-31T09:46:45;98376.06;;;31.31;21.86
60240;BME280;46102;39.012;-7.064;2023-08-31T09:48:47;98368.16;;;31.26;21.46
60240;BME280;46102;39.012;-7.064;2023-08-31T09:50:48;98361.06;;;31.22;21.86
60240;BME280;46102;39.012;-7.064;2023-08-31T09:52:50;98372.63;;;31.37;21.91
60240;BME280;46102;39.012;-7.064;2023-08-31T09:54:56;98374.63;;;31.49;21.18
60240;BME280;46102;39.012;-7.064;2023-08-31T09:56:59;98366.50;;;31.60;21.16
60240;BME280;46102;39.012;-7.064;2023-08-31T09:59:03;98371.13;;;31.76;21.30
60240;BME280;46102;39.012;-7.064;2023-08-31T10:01:05;98365.34;;;31.80;21.38
60240;BME280;46102;39.012;-7.064;2023-08-31T10:03:07;98374.34;;;31.56;20.93
60240;BME280;46102;39.012;-7.064;2023-08-31T10:05:09;98366.91;;;31.49;20.95
60240;BME280;46102;39.012;-7.064;2023-08-31T10:07:10;98371.66;;;31.52;21.28
60240;BME280;46102;39.012;-7.064;2023-08-31T10:09:13;98373.56;;;31.56;20.84
60240;BME280;46102;39.012;-7.064;2023-08-31T10:11:14;98377.28;;;31.74;21.23
60240;BME280;46102;39.012;-7.064;2023-08-31T10:13:16;98375.16;;;31.66;21.21
60240;BME280;46102;39.012;-7.064;2023-08-31T10:15:20;98375.78;;;31.92;20.91
60240;BME280;46102;39.012;-7.064;2023-08-31T10:17:21;98376.44;;;31.96;20.85
60240;BME280;46102;39.012;-7.064;2023-08-31T10:19:23;98369.06;;;31.99;21.05
60240;BME280;46102;39.012;-7.064;2023-08-31T10:21:23;98384.41;;;31.88;20.96
60240;BME280;46102;39.012;-7.064;2023-08-31T10:23:24;98383.81;;;31.93;20.90
60240;BME280;46102;39.012;-7.064;2023-08-31T10:25:25;98376.78;;;31.98;20.90
60240;BME280;46102;39.012;-7.064;2023-08-31T10:27:46;98379.97;;;32.09;20.88
60240;BME280;46102;39.012;-7.064;2023-08-31T10:29:50;98378.91;;;32.16;20.93
60240;BME280;46102;39.012;-7.064;2023-08-31T10:31:52;98377.19;;;32.28;20.70
60240;BME280;46102;39.012;-7.064;2023-08-31T10:36:01;98375.88;;;32.10;20.64
60240;BME280;46102;39.012;-7.064;2023-08-31T10:38:28;98371.84;;;31.89;21.28
60240;BME280;46102;39.012;-7.064;2023-08-31T10:40:32;98366.53;;;32.01;21.45
60240;BME280;46102;39.012;-7.064;2023-08-31T10:42:32;98374.47;;;32.24;21.51
60240;BME280;46102;39.012;-7.064;2023-08-31T10:44:34;98369.47;;;32.28;21.46
60240;BME280;46102;39.012;-7.064;2023-08-31T10:46:36;98366.91;;;32.21;22.40
60240;BME280;46102;39.012;-7.064;2023-08-31T10:48:59;98365.06;;;32.36;22.13
60240;BME280;46102;39.012;-7.064;2023-08-31T10:51:00;98374.53;;;32.43;22.70
60240;BME280;46102;39.012;-7.064;2023-08-31T10:53:08;98364.03;;;32.52;22.19